createdAt,value
2022-08-28T00:00:05.760Z,17.92
2022-08-28T00:01:06.916Z,17.92
2022-08-28T00:02:07.268Z,17.92
2022-08-28T00:03:08.192Z,17.93
2022-08-28T00:04:07.703Z,17.93
2022-08-28T00:05:08.204Z,17.93
2022-08-28T00:06:09.142Z,17.94
2022-08-28T00:07:09.498Z,17.94
2022-08-28T00:08:11.036Z,17.94
2022-08-28T00:09:11.464Z,17.95
2022-08-28T00:09:21.430Z,18.02
2022-08-28T00:10:22.687Z,18.00
2022-08-28T00:11:23.212Z,18.00
2022-08-28T00:12:23.431Z,17.99
2022-08-28T00:13:24.890Z,17.99
2022-08-28T00:14:25.811Z,17.98
2022-08-28T00:15:26.318Z,17.97
2022-08-28T00:16:27.191Z,17.96
2022-08-28T00:17:26.435Z,17.95
2022-08-28T00:18:27.623Z,17.93
2022-08-28T00:19:28.372Z,17.92
2022-08-28T00:20:28.869Z,17.91
2022-08-28T00:21:29.513Z,17.90
2022-08-28T00:22:29.669Z,17.89
2022-08-28T00:23:42.585Z,17.88
2022-08-28T00:24:29.807Z,17.87
2022-08-28T00:25:31.104Z,17.86
2022-08-28T00:26:30.980Z,17.86
2022-08-28T00:27:32.049Z,17.85
2022-08-28T00:28:32.487Z,17.85
2022-08-28T00:29:32.676Z,17.85
2022-08-28T00:29:41.386Z,17.79
2022-08-28T00:30:41.421Z,17.77
2022-08-28T00:31:42.561Z,17.77
2022-08-28T00:32:42.378Z,17.77
2022-08-28T00:33:43.459Z,17.77
2022-08-28T00:34:44.094Z,17.77
2022-08-28T00:35:44.910Z,17.77
2022-08-28T00:36:45.149Z,17.77
2022-08-28T00:37:45.008Z,17.78
2022-08-28T00:38:45.412Z,17.78
2022-08-28T00:39:46.295Z,17.79
2022-08-28T00:40:46.790Z,17.79
2022-08-28T00:41:47.319Z,17.79
2022-08-28T00:42:49.197Z,17.79
2022-08-28T00:43:48.427Z,17.79
2022-08-28T00:44:49.520Z,17.80
2022-08-28T00:45:49.731Z,17.80
2022-08-28T00:46:51.071Z,17.80
2022-08-28T00:47:49.334Z,17.81
2022-08-28T00:48:50.434Z,17.81
2022-08-28T00:49:50.715Z,17.81
2022-08-28T00:50:50.888Z,17.81
2022-08-28T00:51:00.530Z,17.88
2022-08-28T00:51:59.592Z,17.85
2022-08-28T00:53:00.109Z,17.84
2022-08-28T00:54:06.907Z,17.85
2022-08-28T00:55:01.430Z,17.85
2022-08-28T00:56:01.737Z,17.85
2022-08-28T00:57:02.050Z,17.86
2022-08-28T00:58:03.303Z,17.86
2022-08-28T00:59:03.948Z,17.87
2022-08-28T01:00:04.264Z,17.87
2022-08-28T01:01:04.242Z,17.87
2022-08-28T01:02:05.559Z,17.88
2022-08-28T01:03:04.738Z,17.87
2022-08-28T01:04:04.791Z,17.87
2022-08-28T01:05:06.477Z,17.87
2022-08-28T01:06:05.861Z,17.87
2022-08-28T01:07:06.991Z,17.88
2022-08-28T01:08:07.674Z,17.88
2022-08-28T01:09:08.382Z,17.88
2022-08-28T01:10:09.223Z,17.87
2022-08-28T01:11:09.262Z,17.87
2022-08-28T01:12:09.615Z,17.86
2022-08-28T01:12:18.296Z,17.88
2022-08-28T01:13:19.879Z,17.86
2022-08-28T01:14:20.352Z,17.86
2022-08-28T01:15:21.188Z,17.86
2022-08-28T01:16:22.193Z,17.86
2022-08-28T01:17:22.151Z,17.86
2022-08-28T01:18:22.621Z,17.86
2022-08-28T01:19:23.455Z,17.86
2022-08-28T01:20:24.447Z,17.85
2022-08-28T01:21:25.483Z,17.84
2022-08-28T01:22:25.475Z,17.83
2022-08-28T01:23:26.271Z,17.83
2022-08-28T01:24:27.570Z,17.83
2022-08-28T01:25:26.785Z,17.83
2022-08-28T01:26:29.670Z,17.83
2022-08-28T01:27:29.516Z,17.82
2022-08-28T01:28:30.273Z,17.82
2022-08-28T01:29:29.961Z,17.82
2022-08-28T01:30:30.269Z,17.82
2022-08-28T01:31:30.609Z,17.81
2022-08-28T01:32:30.679Z,17.81
2022-08-28T01:32:40.883Z,17.79
2022-08-28T01:33:42.537Z,17.77
2022-08-28T01:34:42.249Z,17.77
2022-08-28T01:35:42.478Z,17.77
2022-08-28T01:36:43.295Z,17.77
2022-08-28T01:37:43.353Z,17.77
2022-08-28T01:38:43.739Z,17.77
2022-08-28T01:39:50.239Z,17.77
2022-08-28T01:40:45.291Z,17.77
2022-08-28T01:41:45.714Z,17.77
2022-08-28T01:42:46.504Z,17.77
2022-08-28T01:43:47.365Z,17.77
2022-08-28T01:44:47.495Z,17.77
2022-08-28T01:45:48.342Z,17.76
2022-08-28T01:46:49.325Z,17.75
2022-08-28T01:47:49.268Z,17.74
2022-08-28T01:48:51.116Z,17.72
2022-08-28T01:49:51.341Z,17.71
2022-08-28T01:50:51.288Z,17.70
2022-08-28T01:51:52.417Z,17.68
2022-08-28T01:52:51.776Z,17.67
2022-08-28T01:53:53.689Z,17.66
2022-08-28T01:54:53.181Z,17.66
2022-08-28T01:55:53.472Z,17.65
2022-08-28T01:56:11.680Z,17.61
2022-08-28T01:57:12.417Z,17.59
2022-08-28T01:58:12.946Z,17.59
2022-08-28T01:59:12.920Z,17.59
2022-08-28T02:00:13.798Z,17.60
2022-08-28T02:01:15.574Z,17.60
2022-08-28T02:02:14.819Z,17.60
2022-08-28T02:03:15.587Z,17.60
2022-08-28T02:04:17.631Z,17.60
2022-08-28T02:05:16.510Z,17.60
2022-08-28T02:06:17.409Z,17.61
2022-08-28T02:07:17.939Z,17.61
2022-08-28T02:08:17.945Z,17.62
2022-08-28T02:09:18.677Z,17.63
2022-08-28T02:10:20.408Z,17.63
2022-08-28T02:11:20.133Z,17.64
2022-08-28T02:12:21.573Z,17.64
2022-08-28T02:13:20.697Z,17.64
2022-08-28T02:14:22.521Z,17.65
2022-08-28T02:15:33.781Z,17.65
2022-08-28T02:17:15.392Z,17.75
2022-08-28T02:18:15.454Z,17.73
2022-08-28T02:19:16.679Z,17.73
2022-08-28T02:20:16.579Z,17.73
2022-08-28T02:21:17.081Z,17.73
2022-08-28T02:22:18.325Z,17.73
2022-08-28T02:23:17.593Z,17.73
2022-08-28T02:24:18.166Z,17.74
2022-08-28T02:25:18.744Z,17.74
2022-08-28T02:26:19.494Z,17.74
2022-08-28T02:27:20.137Z,17.74
2022-08-28T02:28:21.891Z,17.74
2022-08-28T02:29:21.826Z,17.75
2022-08-28T02:30:23.663Z,17.75
2022-08-28T02:31:23.582Z,17.75
2022-08-28T02:32:24.454Z,17.74
2022-08-28T02:33:25.335Z,17.74
2022-08-28T02:34:25.889Z,17.73
2022-08-28T02:35:26.054Z,17.73
2022-08-28T02:36:26.789Z,17.73
2022-08-28T02:37:27.387Z,17.73
2022-08-28T02:38:27.870Z,17.73
2022-08-28T02:39:28.627Z,17.73
2022-08-28T02:40:28.864Z,17.73
2022-08-28T02:41:29.626Z,17.73
2022-08-28T02:42:40.334Z,17.79
2022-08-28T02:43:40.860Z,17.77
2022-08-28T02:44:41.679Z,17.77
2022-08-28T02:45:42.137Z,17.77
2022-08-28T02:46:42.738Z,17.77
2022-08-28T02:47:43.544Z,17.78
2022-08-28T02:48:44.331Z,17.78
2022-08-28T02:49:45.302Z,17.78
2022-08-28T02:50:45.881Z,17.78
2022-08-28T02:51:47.180Z,17.78
2022-08-28T02:52:46.511Z,17.77
2022-08-28T02:53:47.316Z,17.77
2022-08-28T02:54:47.802Z,17.76
2022-08-28T02:55:49.568Z,17.76
2022-08-28T02:56:49.517Z,17.76
2022-08-28T02:57:50.520Z,17.75
2022-08-28T02:58:51.121Z,17.75
2022-08-28T02:59:51.793Z,17.75
2022-08-28T03:00:53.206Z,17.75
2022-08-28T03:01:52.822Z,17.75
2022-08-28T03:02:53.515Z,17.75
2022-08-28T03:03:53.939Z,17.75
2022-08-28T03:04:54.156Z,17.74
2022-08-28T03:05:54.238Z,17.74
2022-08-28T03:06:54.684Z,17.73
2022-08-28T03:08:01.538Z,17.72
2022-08-28T03:08:13.988Z,17.63
2022-08-28T03:09:13.561Z,17.60
2022-08-28T03:10:14.169Z,17.60
2022-08-28T03:11:14.536Z,17.60
2022-08-28T03:12:15.075Z,17.59
2022-08-28T03:13:23.032Z,17.58
2022-08-28T03:14:15.564Z,17.57
2022-08-28T03:15:17.212Z,17.56
2022-08-28T03:16:17.786Z,17.55
2022-08-28T03:17:17.424Z,17.54
2022-08-28T03:18:19.421Z,17.53
2022-08-28T03:19:18.741Z,17.53
2022-08-28T03:20:19.692Z,17.52
2022-08-28T03:21:21.053Z,17.52
2022-08-28T03:22:20.391Z,17.52
2022-08-28T03:23:20.893Z,17.52
2022-08-28T03:24:20.974Z,17.52
2022-08-28T03:25:21.167Z,17.53
2022-08-28T03:26:21.821Z,17.53
2022-08-28T03:27:23.110Z,17.53
2022-08-28T03:28:23.485Z,17.54
2022-08-28T03:29:23.037Z,17.54
2022-08-28T03:30:24.243Z,17.54
2022-08-28T03:30:37.748Z,17.58
2022-08-28T03:31:37.186Z,17.55
2022-08-28T03:32:37.456Z,17.56
2022-08-28T03:33:37.717Z,17.56
2022-08-28T03:34:38.655Z,17.56
2022-08-28T03:35:38.786Z,17.56
2022-08-28T03:36:39.447Z,17.55
2022-08-28T03:37:39.868Z,17.55
2022-08-28T03:38:40.941Z,17.55
2022-08-28T03:39:40.490Z,17.56
2022-08-28T03:40:41.818Z,17.56
2022-08-28T03:41:41.191Z,17.56
2022-08-28T03:42:41.668Z,17.56
2022-08-28T03:43:42.559Z,17.56
2022-08-28T03:44:43.100Z,17.56
2022-08-28T03:45:44.950Z,17.55
2022-08-28T03:46:44.075Z,17.54
2022-08-28T03:47:44.097Z,17.54
2022-08-28T03:48:44.883Z,17.53
2022-08-28T03:49:45.203Z,17.53
2022-08-28T03:50:47.086Z,17.53
2022-08-28T03:51:46.591Z,17.52
2022-08-28T03:52:47.276Z,17.52
2022-08-28T03:53:47.809Z,17.52
2022-08-28T03:54:48.025Z,17.52
2022-08-28T03:55:48.717Z,17.52
2022-08-28T03:55:59.479Z,17.55
2022-08-28T03:57:00.111Z,17.53
2022-08-28T03:58:00.734Z,17.53
2022-08-28T03:59:00.903Z,17.53
2022-08-28T04:00:02.178Z,17.54
2022-08-28T04:01:02.152Z,17.54
2022-08-28T04:02:02.374Z,17.54
2022-08-28T04:03:03.739Z,17.53
2022-08-28T04:04:03.091Z,17.52
2022-08-28T04:05:04.473Z,17.51
2022-08-28T04:06:05.506Z,17.50
2022-08-28T04:07:04.872Z,17.50
2022-08-28T04:08:05.590Z,17.49
2022-08-28T04:09:06.299Z,17.48
2022-08-28T04:10:06.506Z,17.46
2022-08-28T04:11:07.496Z,17.45
2022-08-28T04:12:08.582Z,17.44
2022-08-28T04:13:08.703Z,17.43
2022-08-28T04:14:08.409Z,17.41
2022-08-28T04:15:09.307Z,17.40
2022-08-28T04:16:10.882Z,17.39
2022-08-28T04:17:10.895Z,17.38
2022-08-28T04:17:20.713Z,17.27
2022-08-28T04:18:20.782Z,17.25
2022-08-28T04:19:21.578Z,17.25
2022-08-28T04:20:23.164Z,17.25
2022-08-28T04:21:22.341Z,17.26
2022-08-28T04:22:22.881Z,17.26
2022-08-28T04:23:24.715Z,17.26
2022-08-28T04:24:24.296Z,17.27
2022-08-28T04:25:24.585Z,17.27
2022-08-28T04:26:24.922Z,17.27
2022-08-28T04:27:26.612Z,17.28
2022-08-28T04:28:25.594Z,17.29
2022-08-28T04:29:26.523Z,17.29
2022-08-28T04:30:26.804Z,17.30
2022-08-28T04:31:31.950Z,17.30
2022-08-28T04:32:27.424Z,17.30
2022-08-28T04:33:28.264Z,17.31
2022-08-28T04:34:30.038Z,17.31
2022-08-28T04:35:30.360Z,17.31
2022-08-28T04:36:29.765Z,17.32
2022-08-28T04:37:30.356Z,17.32
2022-08-28T04:38:30.778Z,17.32
2022-08-28T04:39:31.251Z,17.33
2022-08-28T04:40:32.207Z,17.33
2022-08-28T04:40:41.484Z,17.40
2022-08-28T04:41:42.256Z,17.38
2022-08-28T04:42:43.196Z,17.38
2022-08-28T04:43:43.274Z,17.38
2022-08-28T04:44:43.543Z,17.38
2022-08-28T04:45:44.319Z,17.39
2022-08-28T04:46:44.620Z,17.39
2022-08-28T04:47:44.834Z,17.39
2022-08-28T04:48:45.312Z,17.39
2022-08-28T04:49:45.886Z,17.40
2022-08-28T04:50:47.105Z,17.40
2022-08-28T04:51:47.042Z,17.40
2022-08-28T04:52:46.945Z,17.41
2022-08-28T04:53:48.893Z,17.41
2022-08-28T04:54:47.950Z,17.41
2022-08-28T04:55:55.083Z,17.41
2022-08-28T04:56:49.429Z,17.42
2022-08-28T04:57:51.185Z,17.42
2022-08-28T04:58:50.344Z,17.43
2022-08-28T04:59:50.373Z,17.43
2022-08-28T05:00:50.741Z,17.44
2022-08-28T05:01:51.364Z,17.44
2022-08-28T05:02:51.718Z,17.44
2022-08-28T05:03:52.185Z,17.44
2022-08-28T05:04:52.924Z,17.45
2022-08-28T05:05:27.974Z,17.47
2022-08-28T05:06:28.801Z,17.44
2022-08-28T05:07:29.557Z,17.44
2022-08-28T05:08:29.960Z,17.45
2022-08-28T05:09:31.392Z,17.45
2022-08-28T05:10:30.681Z,17.46
2022-08-28T05:11:34.441Z,17.46
2022-08-28T05:12:32.069Z,17.47
2022-08-28T05:13:32.520Z,17.48
2022-08-28T05:14:31.980Z,17.48
2022-08-28T05:15:33.245Z,17.49
2022-08-28T05:16:32.770Z,17.49
2022-08-28T05:17:33.329Z,17.49
2022-08-28T05:18:35.286Z,17.49
2022-08-28T05:19:34.752Z,17.50
2022-08-28T05:20:35.169Z,17.50
2022-08-28T05:21:35.298Z,17.50
2022-08-28T05:22:35.655Z,17.51
2022-08-28T05:23:36.032Z,17.51
2022-08-28T05:24:37.544Z,17.52
2022-08-28T05:25:37.628Z,17.53
2022-08-28T05:26:38.826Z,17.54
2022-08-28T05:27:36.957Z,17.55
2022-08-28T05:28:37.519Z,17.56
2022-08-28T05:28:47.253Z,17.71
2022-08-28T05:29:47.684Z,17.68
2022-08-28T05:30:48.404Z,17.68
2022-08-28T05:31:49.198Z,17.69
2022-08-28T05:32:49.409Z,17.69
2022-08-28T05:33:50.824Z,17.70
2022-08-28T05:34:50.021Z,17.70
2022-08-28T05:35:51.847Z,17.70
2022-08-28T05:36:51.081Z,17.71
2022-08-28T05:37:51.094Z,17.71
2022-08-28T05:38:54.519Z,17.72
2022-08-28T05:39:51.908Z,17.73
2022-08-28T05:40:52.375Z,17.73
2022-08-28T05:41:52.952Z,17.74
2022-08-28T05:42:53.476Z,17.75
2022-08-28T05:43:54.471Z,17.76
2022-08-28T05:44:55.333Z,17.76
2022-08-28T05:45:55.485Z,17.77
2022-08-28T05:46:56.338Z,17.78
2022-08-28T05:47:57.299Z,17.79
2022-08-28T05:48:58.458Z,17.80
2022-08-28T05:49:59.459Z,17.81
2022-08-28T05:50:59.166Z,17.81
2022-08-28T05:52:00.111Z,17.81
2022-08-28T05:53:00.471Z,17.82
2022-08-28T05:54:00.647Z,17.83
2022-08-28T05:55:01.015Z,17.84
2022-08-28T05:56:02.308Z,17.85
2022-08-28T05:56:12.051Z,18.05
2022-08-28T05:57:11.984Z,18.02
2022-08-28T05:58:14.129Z,18.02
2022-08-28T05:59:13.657Z,18.03
2022-08-28T06:00:13.861Z,18.03
2022-08-28T06:01:14.307Z,18.04
2022-08-28T06:02:16.106Z,18.05
2022-08-28T06:03:16.055Z,18.06
2022-08-28T06:04:17.968Z,18.07
2022-08-28T06:05:17.109Z,18.08
2022-08-28T06:06:17.522Z,18.10
2022-08-28T06:07:17.576Z,18.12
2022-08-28T06:08:18.426Z,18.14
2022-08-28T06:09:19.914Z,18.15
2022-08-28T06:10:20.056Z,18.17
2022-08-28T06:11:19.945Z,18.19
2022-08-28T06:12:20.244Z,18.21
2022-08-28T06:13:20.381Z,18.23
2022-08-28T06:14:20.911Z,18.25
2022-08-28T06:15:21.616Z,18.27
2022-08-28T06:16:23.495Z,18.28
2022-08-28T06:17:23.538Z,18.30
2022-08-28T06:17:36.005Z,18.35
2022-08-28T06:18:36.147Z,18.32
2022-08-28T06:19:41.116Z,18.32
2022-08-28T06:20:37.529Z,18.33
2022-08-28T06:21:38.315Z,18.34
2022-08-28T06:22:38.454Z,18.35
2022-08-28T06:23:38.544Z,18.36
2022-08-28T06:24:38.683Z,18.38
2022-08-28T06:25:39.714Z,18.38
2022-08-28T06:26:39.482Z,18.37
2022-08-28T06:27:41.189Z,18.37
2022-08-28T06:28:40.812Z,18.37
2022-08-28T06:29:41.056Z,18.38
2022-08-28T06:30:49.021Z,18.38
2022-08-28T06:31:41.970Z,18.37
2022-08-28T06:32:42.977Z,18.37
2022-08-28T06:33:43.451Z,18.37
2022-08-28T06:34:44.594Z,18.38
2022-08-28T06:35:44.334Z,18.41
2022-08-28T06:36:45.313Z,18.44
2022-08-28T06:37:48.991Z,18.48
2022-08-28T06:38:46.347Z,18.53
2022-08-28T06:39:48.203Z,18.59
2022-08-28T06:40:01.239Z,20.05
2022-08-28T06:41:01.188Z,20.04
2022-08-28T06:42:01.346Z,20.04
2022-08-28T06:43:02.250Z,20.03
2022-08-28T06:44:02.911Z,20.02
2022-08-28T06:45:04.453Z,20.02
2022-08-28T06:46:03.485Z,20.03
2022-08-28T06:47:04.366Z,20.03
2022-08-28T06:48:05.902Z,20.05
2022-08-28T06:49:05.598Z,20.05
2022-08-28T06:50:07.098Z,20.05
2022-08-28T06:51:06.239Z,20.04
2022-08-28T06:52:07.898Z,20.05
2022-08-28T06:53:08.731Z,20.08
2022-08-28T06:54:07.882Z,20.15
2022-08-28T06:55:09.291Z,20.21
2022-08-28T06:56:08.754Z,20.29
2022-08-28T06:57:08.955Z,20.39
2022-08-28T06:58:10.531Z,20.52
2022-08-28T06:59:10.621Z,20.67
2022-08-28T07:00:11.126Z,20.83
2022-08-28T07:01:12.602Z,21.01
2022-08-28T07:02:11.080Z,21.19
2022-08-28T07:02:22.948Z,23.88
2022-08-28T07:03:22.241Z,23.87
2022-08-28T07:04:23.347Z,23.87
2022-08-28T07:05:24.530Z,23.89
2022-08-28T07:06:23.169Z,23.94
2022-08-28T07:07:31.727Z,23.99
2022-08-28T07:08:24.685Z,24.06
2022-08-28T07:09:26.344Z,24.14
2022-08-28T07:10:26.302Z,24.24
2022-08-28T07:11:26.606Z,24.36
2022-08-28T07:12:26.586Z,24.49
2022-08-28T07:13:31.001Z,24.63
2022-08-28T07:14:27.673Z,24.78
2022-08-28T07:15:28.786Z,24.94
2022-08-28T07:16:28.137Z,25.09
2022-08-28T07:17:29.479Z,25.26
2022-08-28T07:18:28.837Z,25.42
2022-08-28T07:19:29.017Z,25.58
2022-08-28T07:20:29.861Z,25.75
2022-08-28T07:21:30.393Z,25.93
2022-08-28T07:22:31.788Z,26.08
2022-08-28T07:23:32.248Z,26.26
2022-08-28T07:24:31.368Z,26.44
2022-08-28T07:25:32.039Z,26.60
2022-08-28T07:25:41.749Z,29.33
2022-08-28T07:26:42.193Z,29.35
2022-08-28T07:27:43.168Z,29.37
2022-08-28T07:28:45.488Z,29.39
2022-08-28T07:29:44.690Z,29.44
2022-08-28T07:30:46.593Z,29.46
2022-08-28T07:31:46.032Z,29.50
2022-08-28T07:32:47.684Z,29.55
2022-08-28T07:33:50.864Z,29.61
2022-08-28T07:34:46.876Z,29.68
2022-08-28T07:35:47.330Z,29.74
2022-08-28T07:36:48.041Z,29.80
2022-08-28T07:37:48.833Z,29.85
2022-08-28T07:38:50.200Z,29.91
2022-08-28T07:39:49.863Z,29.96
2022-08-28T07:40:51.296Z,30.01
2022-08-28T07:41:51.023Z,30.08
2022-08-28T07:42:52.271Z,30.13
2022-08-28T07:43:51.427Z,30.17
2022-08-28T07:44:53.043Z,30.15
2022-08-28T07:45:53.125Z,30.11
2022-08-28T07:46:01.981Z,29.30
2022-08-28T07:47:02.016Z,29.23
2022-08-28T07:48:02.842Z,29.21
2022-08-28T07:49:03.857Z,29.13
2022-08-28T07:50:04.415Z,29.05
2022-08-28T07:51:04.918Z,28.99
2022-08-28T07:52:04.375Z,28.91
2022-08-28T07:53:04.524Z,28.86
2022-08-28T07:54:04.765Z,28.76
2022-08-28T07:55:06.701Z,28.66
2022-08-28T07:56:07.309Z,28.55
2022-08-28T07:57:06.883Z,28.49
2022-08-28T07:58:08.378Z,28.44
2022-08-28T07:59:08.658Z,28.41
2022-08-28T08:00:08.431Z,28.37
2022-08-28T08:01:10.373Z,28.32
2022-08-28T08:02:09.896Z,28.29
2022-08-28T08:03:10.065Z,28.26
2022-08-28T08:04:10.118Z,28.19
2022-08-28T08:05:10.367Z,28.14
2022-08-28T08:06:11.138Z,28.04
2022-08-28T08:07:11.642Z,27.92
2022-08-28T08:08:12.159Z,27.76
2022-08-28T08:09:12.602Z,27.58
2022-08-28T08:09:25.983Z,25.06
2022-08-28T08:10:25.921Z,25.12
2022-08-28T08:11:26.564Z,25.11
2022-08-28T08:12:29.303Z,25.10
2022-08-28T08:13:27.599Z,25.10
2022-08-28T08:14:28.077Z,25.08
2022-08-28T08:15:31.347Z,25.09
2022-08-28T08:16:28.974Z,25.11
2022-08-28T08:17:30.054Z,25.15
2022-08-28T08:18:30.634Z,25.16
2022-08-28T08:19:31.539Z,25.12
2022-08-28T08:20:30.816Z,25.08
2022-08-28T08:21:32.329Z,25.05
2022-08-28T08:22:31.820Z,24.99
2022-08-28T08:23:32.655Z,24.93
2022-08-28T08:24:34.377Z,24.86
2022-08-28T08:25:33.564Z,24.79
2022-08-28T08:26:33.763Z,24.71
2022-08-28T08:27:37.843Z,24.65
2022-08-28T08:28:34.948Z,24.58
2022-08-28T08:29:36.703Z,24.49
2022-08-28T08:30:36.637Z,24.39
2022-08-28T08:30:45.348Z,22.55
2022-08-28T08:31:45.758Z,22.51
2022-08-28T08:32:46.415Z,22.49
2022-08-28T08:33:48.013Z,22.48
2022-08-28T08:34:48.878Z,22.46
2022-08-28T08:35:49.205Z,22.47
2022-08-28T08:36:50.248Z,22.50
2022-08-28T08:37:48.409Z,22.54
2022-08-28T08:38:49.957Z,22.56
2022-08-28T08:39:49.289Z,22.54
2022-08-28T08:40:50.889Z,22.51
2022-08-28T08:41:51.874Z,22.47
2022-08-28T08:42:52.110Z,22.43
2022-08-28T08:43:52.827Z,22.39
2022-08-28T08:44:52.396Z,22.34
2022-08-28T08:45:53.687Z,22.31
2022-08-28T08:46:53.522Z,22.26
2022-08-28T08:47:53.668Z,22.22
2022-08-28T08:48:55.093Z,22.20
2022-08-28T08:49:56.064Z,22.17
2022-08-28T08:50:07.708Z,21.85
2022-08-28T08:51:10.370Z,21.82
2022-08-28T08:52:08.770Z,21.81
2022-08-28T08:53:09.160Z,21.82
2022-08-28T08:54:10.671Z,21.82
2022-08-28T08:55:10.242Z,21.81
2022-08-28T08:56:11.214Z,21.81
2022-08-28T08:57:12.290Z,21.81
2022-08-28T08:58:13.457Z,21.80
2022-08-28T08:59:12.322Z,21.79
2022-08-28T09:00:15.915Z,21.78
2022-08-28T09:01:12.577Z,21.77
2022-08-28T09:02:13.171Z,21.79
2022-08-28T09:03:15.262Z,21.83
2022-08-28T09:04:15.904Z,21.89
2022-08-28T09:05:14.909Z,21.94
2022-08-28T09:06:15.387Z,22.00
2022-08-28T09:07:16.841Z,22.07
2022-08-28T09:08:17.511Z,22.14
2022-08-28T09:09:17.902Z,22.22
2022-08-28T09:10:18.399Z,22.31
2022-08-28T09:11:19.204Z,22.41
2022-08-28T09:12:19.458Z,22.52
2022-08-28T09:12:28.156Z,24.33
2022-08-28T09:13:28.611Z,24.32
2022-08-28T09:14:29.527Z,24.32
2022-08-28T09:15:29.643Z,24.33
2022-08-28T09:16:30.016Z,24.36
2022-08-28T09:17:31.549Z,24.40
2022-08-28T09:18:31.445Z,24.42
2022-08-28T09:19:32.692Z,24.45
2022-08-28T09:20:33.627Z,24.47
2022-08-28T09:21:32.892Z,24.50
2022-08-28T09:22:34.601Z,24.53
2022-08-28T09:23:34.088Z,24.57
2022-08-28T09:24:34.550Z,24.60
2022-08-28T09:25:35.864Z,24.63
2022-08-28T09:26:36.357Z,24.65
2022-08-28T09:27:35.923Z,24.68
2022-08-28T09:28:36.245Z,24.71
2022-08-28T09:29:38.143Z,24.70
2022-08-28T09:30:38.688Z,24.68
2022-08-28T09:31:38.143Z,24.67
2022-08-28T09:32:39.671Z,24.66
2022-08-28T09:33:41.768Z,24.67
2022-08-28T09:33:50.205Z,24.69
2022-08-28T09:34:51.041Z,24.66
2022-08-28T09:35:52.688Z,24.66
2022-08-28T09:36:52.275Z,24.66
2022-08-28T09:37:54.026Z,24.66
2022-08-28T09:38:54.975Z,24.66
2022-08-28T09:39:54.379Z,24.67
2022-08-28T09:40:54.845Z,24.69
2022-08-28T09:41:56.226Z,24.71
2022-08-28T09:42:56.921Z,24.73
2022-08-28T09:43:57.141Z,24.75
2022-08-28T09:44:56.490Z,24.78
2022-08-28T09:45:57.606Z,24.81
2022-08-28T09:46:57.258Z,24.82
2022-08-28T09:47:58.003Z,24.84
2022-08-28T09:48:58.815Z,24.86
2022-08-28T09:49:59.342Z,24.87
2022-08-28T09:51:00.445Z,24.89
2022-08-28T09:52:00.196Z,24.91
2022-08-28T09:53:01.287Z,24.93
2022-08-28T09:54:01.822Z,24.97
2022-08-28T09:55:02.235Z,25.03
2022-08-28T09:56:01.473Z,25.07
2022-08-28T09:56:10.131Z,25.98
2022-08-28T09:57:10.381Z,25.98
2022-08-28T09:58:11.627Z,25.98
2022-08-28T09:59:11.581Z,26.01
2022-08-28T10:00:13.295Z,26.03
2022-08-28T10:01:12.494Z,26.05
2022-08-28T10:02:12.707Z,26.09
2022-08-28T10:03:12.857Z,26.12
2022-08-28T10:04:13.553Z,26.16
2022-08-28T10:05:13.793Z,26.19
2022-08-28T10:06:15.321Z,26.19
2022-08-28T10:07:16.245Z,26.18
2022-08-28T10:08:16.657Z,26.15
2022-08-28T10:09:17.166Z,26.10
2022-08-28T10:10:18.081Z,26.05
2022-08-28T10:11:17.969Z,25.99
2022-08-28T10:12:19.876Z,25.96
2022-08-28T10:13:19.931Z,25.95
2022-08-28T10:14:20.657Z,25.94
2022-08-28T10:15:20.288Z,25.93
2022-08-28T10:16:21.575Z,25.94
2022-08-28T10:17:21.617Z,25.94
2022-08-28T10:18:21.134Z,25.95
2022-08-28T10:19:22.665Z,25.96
2022-08-28T10:19:34.953Z,25.43
2022-08-28T10:20:35.851Z,25.35
2022-08-28T10:21:36.798Z,25.33
2022-08-28T10:22:38.371Z,25.33
2022-08-28T10:23:38.999Z,25.32
2022-08-28T10:24:39.713Z,25.32
2022-08-28T10:25:39.049Z,25.32
2022-08-28T10:26:39.890Z,25.34
2022-08-28T10:27:41.357Z,25.35
2022-08-28T10:28:41.701Z,25.37
2022-08-28T10:29:41.038Z,25.40
2022-08-28T10:30:41.694Z,25.42
2022-08-28T10:31:42.384Z,25.43
2022-08-28T10:32:43.108Z,25.44
2022-08-28T10:33:43.639Z,25.47
2022-08-28T10:34:44.828Z,25.50
2022-08-28T10:35:45.673Z,25.50
2022-08-28T10:36:45.070Z,25.51
2022-08-28T10:37:46.528Z,25.53
2022-08-28T10:38:50.791Z,25.54
2022-08-28T10:39:45.883Z,25.54
2022-08-28T10:40:47.114Z,25.55
2022-08-28T10:41:47.170Z,25.57
2022-08-28T10:42:47.111Z,25.58
2022-08-28T10:43:48.267Z,25.60
2022-08-28T10:44:07.367Z,25.76
2022-08-28T10:45:07.888Z,25.72
2022-08-28T10:46:08.297Z,25.73
2022-08-28T10:47:08.762Z,25.74
2022-08-28T10:48:10.463Z,25.75
2022-08-28T10:49:11.019Z,25.76
2022-08-28T10:50:10.674Z,25.78
2022-08-28T10:51:10.771Z,25.79
2022-08-28T10:52:11.634Z,25.79
2022-08-28T10:53:13.285Z,25.78
2022-08-28T10:54:12.619Z,25.78
2022-08-28T10:55:13.113Z,25.78
2022-08-28T10:56:14.631Z,25.78
2022-08-28T10:57:14.231Z,25.79
2022-08-28T10:58:24.916Z,25.81
2022-08-28T10:59:14.570Z,25.83
2022-08-28T11:00:14.918Z,25.85
2022-08-28T11:01:16.912Z,25.87
2022-08-28T11:02:16.341Z,25.90
2022-08-28T11:03:33.474Z,25.93
2022-08-28T11:04:24.867Z,25.96
2022-08-28T11:05:18.535Z,25.97
2022-08-28T11:06:20.015Z,25.97
2022-08-28T11:07:19.780Z,25.98
2022-08-28T11:08:21.315Z,26.00
2022-08-28T11:08:33.314Z,26.43
2022-08-28T11:09:33.339Z,26.42
2022-08-28T11:10:34.471Z,26.43
2022-08-28T11:11:35.195Z,26.40
2022-08-28T11:12:35.553Z,26.36
2022-08-28T11:13:36.240Z,26.33
2022-08-28T11:14:47.536Z,26.31
2022-08-28T11:15:37.593Z,26.29
2022-08-28T11:16:36.821Z,26.29
2022-08-28T11:18:08.336Z,26.27
2022-08-28T11:19:07.431Z,26.26
2022-08-28T11:20:08.939Z,26.25
2022-08-28T11:21:09.511Z,26.24
2022-08-28T11:22:09.812Z,26.24
2022-08-28T11:23:09.223Z,26.24
2022-08-28T11:24:09.784Z,26.25
2022-08-28T11:25:10.747Z,26.27
2022-08-28T11:26:11.216Z,26.28
2022-08-28T11:27:11.647Z,26.29
2022-08-28T11:28:14.187Z,26.28
2022-08-28T11:29:13.208Z,26.28
2022-08-28T11:30:13.921Z,26.25
2022-08-28T11:31:28.720Z,26.22
2022-08-28T11:32:15.623Z,26.21
2022-08-28T11:33:17.770Z,26.19
2022-08-28T11:34:15.825Z,26.18
2022-08-28T11:35:16.440Z,26.16
2022-08-28T11:36:18.088Z,26.11
2022-08-28T11:37:17.097Z,26.07
2022-08-28T11:38:20.084Z,26.06
2022-08-28T11:38:30.435Z,25.96
2022-08-28T11:39:30.594Z,25.95
2022-08-28T11:40:31.187Z,25.95
2022-08-28T11:41:31.859Z,25.96
2022-08-28T11:42:32.480Z,25.98
2022-08-28T11:43:32.509Z,26.00
2022-08-28T11:44:33.965Z,26.02
2022-08-28T11:45:35.737Z,26.04
2022-08-28T11:46:34.159Z,26.06
2022-08-28T11:47:34.642Z,26.08
2022-08-28T11:48:36.278Z,26.10
2022-08-28T11:49:35.423Z,26.12
2022-08-28T11:50:36.645Z,26.15
2022-08-28T11:51:36.361Z,26.18
2022-08-28T11:52:36.320Z,26.18
2022-08-28T11:53:37.179Z,26.19
2022-08-28T11:54:37.576Z,26.21
2022-08-28T11:55:38.402Z,26.24
2022-08-28T11:56:40.004Z,26.27
2022-08-28T11:57:40.802Z,26.30
2022-08-28T11:58:40.495Z,26.33
2022-08-28T11:59:40.856Z,26.36
2022-08-28T12:00:42.769Z,26.39
2022-08-28T12:01:05.035Z,26.88
2022-08-28T12:02:06.435Z,26.87
2022-08-28T12:03:05.554Z,26.85
2022-08-28T12:04:08.407Z,26.85
2022-08-28T12:05:07.558Z,26.85
2022-08-28T12:06:08.536Z,26.85
2022-08-28T12:07:08.354Z,26.86
2022-08-28T12:08:11.536Z,26.86
2022-08-28T12:09:09.590Z,26.85
2022-08-28T12:10:11.434Z,26.85
2022-08-28T12:11:11.732Z,26.87
2022-08-28T12:12:11.535Z,26.88
2022-08-28T12:13:12.443Z,26.89
2022-08-28T12:14:13.312Z,26.90
2022-08-28T12:15:17.961Z,26.92
2022-08-28T12:16:15.743Z,26.94
2022-08-28T12:17:15.675Z,26.95
2022-08-28T12:17:27.884Z,27.12
2022-08-28T12:18:23.845Z,27.10
2022-08-28T12:19:24.895Z,27.10
2022-08-28T12:20:24.976Z,27.10
2022-08-28T12:21:26.244Z,27.09
2022-08-28T12:22:29.419Z,27.08
2022-08-28T12:23:26.269Z,27.07
2022-08-28T12:24:27.137Z,27.04
2022-08-28T12:25:27.173Z,27.02
2022-08-28T12:26:28.873Z,27.00
2022-08-28T12:27:30.947Z,26.98
2022-08-28T12:28:29.158Z,26.97
2022-08-28T12:29:29.810Z,26.96
2022-08-28T12:30:30.598Z,26.94
2022-08-28T12:31:31.112Z,26.94
2022-08-28T12:32:32.350Z,26.93
2022-08-28T12:33:31.754Z,26.94
2022-08-28T12:34:32.516Z,26.93
2022-08-28T12:34:40.186Z,26.77